createdAt,value
2022-11-03T00:00:08.773Z,9.80
2022-11-03T00:03:01.508Z,11.40
2022-11-03T00:05:51.558Z,10.90
2022-11-03T00:08:23.670Z,11.30
2022-11-03T00:10:55.770Z,10.50
2022-11-03T00:13:27.883Z,11.10
2022-11-03T00:16:01.763Z,11.60
2022-11-03T00:18:34.022Z,10.70
2022-11-03T00:21:07.945Z,10.50
2022-11-03T00:23:42.124Z,11.20
2022-11-03T00:26:15.786Z,10.40
2022-11-03T00:28:50.227Z,10.50
2022-11-03T00:31:25.994Z,11.20
2022-11-03T00:33:59.243Z,11.00
2022-11-03T00:36:32.848Z,11.00
2022-11-03T00:39:05.873Z,9.70
2022-11-03T00:45:02.748Z,9.70
2022-11-03T00:47:34.921Z,9.70
2022-11-03T00:50:08.222Z,10.90
2022-11-03T00:52:40.679Z,9.90
2022-11-03T00:55:12.973Z,11.10
2022-11-03T00:57:45.408Z,10.10
2022-11-03T01:00:34.659Z,10.40
2022-11-03T01:03:08.125Z,9.60
2022-11-03T01:06:05.956Z,10.30
2022-11-03T01:08:38.994Z,10.50
2022-11-03T01:11:43.164Z,10.90
2022-11-03T01:14:17.321Z,10.90
2022-11-03T01:16:50.599Z,10.90
2022-11-03T01:19:24.126Z,12.70
2022-11-03T01:21:57.269Z,10.50
2022-11-03T01:24:31.992Z,10.70
2022-11-03T01:27:04.875Z,11.40
2022-11-03T01:33:56.765Z,10.70
2022-11-03T01:36:29.860Z,11.30
2022-11-03T01:39:02.370Z,11.30
2022-11-03T01:44:29.611Z,11.10
2022-11-03T01:47:08.480Z,11.10
2022-11-03T01:49:45.297Z,11.40
2022-11-03T01:52:19.945Z,11.70
2022-11-03T01:54:57.586Z,11.60
2022-11-03T01:57:33.258Z,11.50
2022-11-03T02:00:07.274Z,11.40
2022-11-03T02:02:41.044Z,12.00
2022-11-03T02:10:54.518Z,13.00
2022-11-03T02:13:28.723Z,12.40
2022-11-03T02:16:02.278Z,11.40
2022-11-03T02:18:37.846Z,12.40
2022-11-03T02:21:16.652Z,11.30
2022-11-03T02:23:52.555Z,12.10
2022-11-03T02:26:24.813Z,12.50
2022-11-03T02:28:57.311Z,12.40
2022-11-03T02:31:33.527Z,12.00
2022-11-03T02:34:09.599Z,12.40
2022-11-03T02:36:46.534Z,11.70
2022-11-03T02:39:21.071Z,12.20
2022-11-03T02:41:54.267Z,11.60
2022-11-03T02:44:27.151Z,12.80
2022-11-03T02:47:01.895Z,13.20
2022-11-03T02:49:34.368Z,12.20
2022-11-03T02:54:41.462Z,10.60
2022-11-03T02:57:16.940Z,11.90
2022-11-03T02:59:52.035Z,12.20
2022-11-03T03:02:27.737Z,12.30
2022-11-03T03:05:01.581Z,12.40
2022-11-03T03:07:35.785Z,13.10
2022-11-03T03:10:10.254Z,13.10
2022-11-03T03:12:44.706Z,12.50
2022-11-03T03:15:17.098Z,12.10
2022-11-03T03:17:56.263Z,11.30
2022-11-03T03:20:33.043Z,12.90
2022-11-03T03:23:11.714Z,12.40
2022-11-03T03:25:47.083Z,13.40
2022-11-03T03:28:22.799Z,12.60
2022-11-03T03:30:56.236Z,13.20
2022-11-03T03:33:29.595Z,12.90
2022-11-03T03:36:02.754Z,12.60
2022-11-03T03:38:37.076Z,13.70
2022-11-03T03:41:11.409Z,14.70
2022-11-03T03:43:44.885Z,12.00
2022-11-03T03:46:17.579Z,13.90
2022-11-03T03:48:49.866Z,13.50
2022-11-03T03:51:24.296Z,13.10
2022-11-03T03:53:56.698Z,13.00
2022-11-03T03:56:31.592Z,13.60
2022-11-03T03:59:04.631Z,13.90
2022-11-03T04:01:36.928Z,13.30
2022-11-03T04:04:09.923Z,13.50
2022-11-03T04:06:42.005Z,13.80
2022-11-03T04:09:14.180Z,12.70
2022-11-03T04:12:03.842Z,13.10
2022-11-03T04:14:53.446Z,13.30
2022-11-03T04:17:43.051Z,13.20
2022-11-03T04:20:33.975Z,13.80
2022-11-03T04:23:06.073Z,13.40
2022-11-03T04:25:38.791Z,13.90
2022-11-03T04:28:15.889Z,13.30
2022-11-03T04:30:48.197Z,13.30
2022-11-03T04:33:21.957Z,12.70
2022-11-03T04:35:55.926Z,13.00
2022-11-03T04:38:29.348Z,14.00
2022-11-03T04:41:03.593Z,13.30
2022-11-03T04:43:36.878Z,14.10
2022-11-03T04:46:12.638Z,14.10
2022-11-03T04:48:44.843Z,13.70
2022-11-03T04:51:18.928Z,12.40
2022-11-03T04:53:54.269Z,12.80
2022-11-03T04:56:27.764Z,13.60
2022-11-03T04:59:00.889Z,13.20
2022-11-03T05:01:33.329Z,13.80
2022-11-03T05:04:12.496Z,13.80
2022-11-03T05:06:47.625Z,13.80
2022-11-03T05:09:24.811Z,13.80
2022-11-03T05:11:57.028Z,14.00
2022-11-03T05:14:31.138Z,13.60
2022-11-03T05:17:07.261Z,13.80
2022-11-03T05:19:40.396Z,14.20
2022-11-03T05:22:18.087Z,14.20
2022-11-03T05:24:50.405Z,14.20
2022-11-03T05:27:24.065Z,14.50
2022-11-03T05:30:00.784Z,14.00
2022-11-03T05:32:35.867Z,12.90
2022-11-03T05:35:17.576Z,14.00
2022-11-03T05:37:49.750Z,13.60
2022-11-03T05:40:26.037Z,14.30
2022-11-03T05:43:00.291Z,14.10
2022-11-03T05:45:39.266Z,14.10
2022-11-03T05:48:18.499Z,13.90
2022-11-03T05:50:50.689Z,13.90
2022-11-03T05:53:31.342Z,14.30
2022-11-03T05:56:06.029Z,15.10
2022-11-03T05:58:40.308Z,15.30
2022-11-03T06:01:17.826Z,14.30
2022-11-03T06:03:50.477Z,16.20
2022-11-03T06:08:54.549Z,15.30
2022-11-03T06:11:32.522Z,17.30
2022-11-03T06:14:07.468Z,16.00
2022-11-03T06:16:41.941Z,16.60
2022-11-03T06:19:29.710Z,16.40
2022-11-03T06:22:03.680Z,15.70
2022-11-03T06:24:36.896Z,16.70
2022-11-03T06:27:10.977Z,16.40
2022-11-03T06:29:43.407Z,16.30
2022-11-03T06:32:16.003Z,17.10
2022-11-03T06:37:27.882Z,15.30
2022-11-03T06:40:01.933Z,16.70
2022-11-03T06:42:35.023Z,16.70
2022-11-03T06:45:16.199Z,26.40
2022-11-03T06:47:48.633Z,16.70
2022-11-03T06:50:27.265Z,17.10
2022-11-03T06:53:00.039Z,17.20
2022-11-03T06:55:33.471Z,16.50
2022-11-03T06:58:13.751Z,16.50
2022-11-03T07:00:51.004Z,15.70
2022-11-03T07:03:26.898Z,17.50
2022-11-03T07:06:03.470Z,15.90
2022-11-03T07:08:39.161Z,15.90
2022-11-03T07:11:16.723Z,15.90
2022-11-03T07:13:50.119Z,15.50
2022-11-03T07:16:29.008Z,16.10
2022-11-03T07:19:04.098Z,15.20
2022-11-03T07:21:40.860Z,16.50
2022-11-03T07:24:20.054Z,16.40
2022-11-03T07:26:58.261Z,16.20
2022-11-03T07:29:31.994Z,14.50
2022-11-03T07:32:04.241Z,15.50
2022-11-03T07:34:36.352Z,14.70
2022-11-03T07:37:09.460Z,15.30
2022-11-03T07:39:41.654Z,15.00
2022-11-03T07:42:19.052Z,18.40
2022-11-03T07:44:51.759Z,16.70
2022-11-03T07:47:26.898Z,15.90
2022-11-03T07:49:59.465Z,15.20
2022-11-03T07:55:02.477Z,15.30
2022-11-03T08:00:10.632Z,16.20
2022-11-03T08:02:48.158Z,15.20
2022-11-03T08:05:21.090Z,17.20
2022-11-03T08:07:53.450Z,17.50
2022-11-03T08:10:25.707Z,16.20
2022-11-03T08:12:58.944Z,15.40
2022-11-03T08:15:31.151Z,16.60
2022-11-03T08:18:03.420Z,16.40
2022-11-03T08:20:35.807Z,17.10
2022-11-03T08:23:26.126Z,15.80
2022-11-03T08:26:00.201Z,17.20
2022-11-03T08:28:32.669Z,16.40
2022-11-03T08:33:46.634Z,14.50
2022-11-03T08:36:20.087Z,15.20
2022-11-03T08:38:52.587Z,16.50
2022-11-03T08:41:24.800Z,14.30
2022-11-03T08:43:56.941Z,16.40
2022-11-03T08:46:29.094Z,14.80
2022-11-03T08:49:01.469Z,15.10
2022-11-03T08:51:34.056Z,16.10
2022-11-03T08:54:06.489Z,15.30
2022-11-03T08:56:38.826Z,15.20
2022-11-03T08:59:11.069Z,15.10
2022-11-03T09:01:45.014Z,14.40
2022-11-03T09:04:19.287Z,15.50
2022-11-03T09:06:52.530Z,15.20
2022-11-03T09:12:19.440Z,15.10
2022-11-03T09:14:52.812Z,14.80
2022-11-03T09:17:26.445Z,16.20
2022-11-03T09:19:59.328Z,14.20
2022-11-03T09:22:32.101Z,15.70
2022-11-03T09:25:05.852Z,14.70
2022-11-03T09:27:38.323Z,15.40
2022-11-03T09:32:47.977Z,14.40
2022-11-03T09:35:21.842Z,12.50
2022-11-03T09:37:55.468Z,12.50
2022-11-03T09:40:28.830Z,13.00
2022-11-03T09:43:01.236Z,10.90
2022-11-03T09:45:36.848Z,11.20
2022-11-03T09:48:13.163Z,9.30
2022-11-03T09:50:45.838Z,14.00
2022-11-03T09:53:19.463Z,11.90
2022-11-03T09:55:52.864Z,9.60
2022-11-03T09:58:26.245Z,10.40
2022-11-03T10:00:59.756Z,10.10
2022-11-03T10:09:56.556Z,9.90
2022-11-03T10:12:29.354Z,9.90
2022-11-03T10:15:02.458Z,10.30
2022-11-03T10:17:34.772Z,9.60
2022-11-03T10:20:11.347Z,9.10
2022-11-03T10:22:44.102Z,10.00
2022-11-03T10:25:38.831Z,9.40
2022-11-03T10:28:20.156Z,9.60
2022-11-03T10:31:11.951Z,9.10
2022-11-03T10:36:27.928Z,9.60
2022-11-03T10:39:01.880Z,10.40
2022-11-03T10:41:34.747Z,9.70
2022-11-03T10:44:22.964Z,9.00
2022-11-03T10:47:02.894Z,8.00
2022-11-03T10:49:39.213Z,8.60
2022-11-03T10:52:19.919Z,9.30
2022-11-03T10:54:53.738Z,8.20
2022-11-03T10:57:26.407Z,9.00
2022-11-03T10:59:59.017Z,8.90
2022-11-03T11:02:33.206Z,9.40
2022-11-03T11:05:11.275Z,8.80
2022-11-03T11:07:44.915Z,8.40
2022-11-03T11:10:19.705Z,8.20
2022-11-03T11:13:27.061Z,8.30
2022-11-03T11:16:00.769Z,7.80
2022-11-03T11:19:10.143Z,7.90
2022-11-03T11:22:05.534Z,6.40
2022-11-03T11:25:04.695Z,7.10
2022-11-03T11:28:17.979Z,7.70
2022-11-03T11:31:20.077Z,7.50
2022-11-03T11:33:52.634Z,7.20
2022-11-03T11:36:26.224Z,7.20
2022-11-03T11:39:01.763Z,7.10
2022-11-03T11:42:10.349Z,6.60
2022-11-03T11:44:58.107Z,7.20
2022-11-03T11:47:35.874Z,6.20
2022-11-03T11:50:33.475Z,6.90
2022-11-03T11:53:26.265Z,6.70
2022-11-03T11:56:03.643Z,6.30
2022-11-03T11:58:42.646Z,7.00
2022-11-03T12:01:32.735Z,6.70
2022-11-03T12:04:09.618Z,7.00
2022-11-03T12:09:21.991Z,5.90
2022-11-03T12:11:56.505Z,6.30
2022-11-03T12:14:36.070Z,6.20
2022-11-03T12:17:35.649Z,6.20
2022-11-03T12:20:45.078Z,6.30
2022-11-03T12:23:37.153Z,6.20
2022-11-03T12:26:13.876Z,6.20
2022-11-03T12:28:46.391Z,6.20
2022-11-03T12:31:18.671Z,6.50
2022-11-03T12:36:21.423Z,5.60
2022-11-03T12:41:25.632Z,5.80
2022-11-03T12:46:28.835Z,6.60
2022-11-03T12:51:31.597Z,6.20
2022-11-03T12:56:34.255Z,6.50
2022-11-03T12:59:06.852Z,8.30
2022-11-03T13:04:10.373Z,6.10
2022-11-03T13:06:42.508Z,6.00
2022-11-03T13:12:02.743Z,5.70
2022-11-03T13:14:34.954Z,6.40
2022-11-03T13:17:07.124Z,6.00
2022-11-03T13:19:39.226Z,6.40
2022-11-03T13:22:11.348Z,6.10
2022-11-03T13:24:43.536Z,6.10
2022-11-03T13:27:15.793Z,6.50
2022-11-03T13:29:48.111Z,5.70
2022-11-03T13:34:53.487Z,5.40
2022-11-03T13:37:25.684Z,6.30
2022-11-03T13:39:57.826Z,6.00
2022-11-03T13:45:00.860Z,5.90
2022-11-03T13:47:49.642Z,6.10
2022-11-03T13:50:25.521Z,6.90
2022-11-03T13:55:50.441Z,7.00
2022-11-03T14:01:15.014Z,6.60
2022-11-03T14:06:38.395Z,6.10
2022-11-03T14:09:13.364Z,6.00
2022-11-03T14:12:03.005Z,6.20
2022-11-03T14:14:35.178Z,6.10
2022-11-03T14:17:07.460Z,6.00
2022-11-03T14:22:21.091Z,6.60
2022-11-03T14:24:54.066Z,6.60
2022-11-03T14:27:26.530Z,6.50
2022-11-03T14:29:59.896Z,7.40
2022-11-03T14:32:32.008Z,7.50
2022-11-03T14:35:04.455Z,6.90
2022-11-03T14:37:36.742Z,7.60
2022-11-03T14:40:31.364Z,7.80
2022-11-03T14:43:04.039Z,7.40
2022-11-03T14:45:39.764Z,8.10
2022-11-03T14:48:14.679Z,8.10
2022-11-03T14:50:48.292Z,8.40
2022-11-03T14:53:20.475Z,8.20
2022-11-03T14:55:52.746Z,8.70
2022-11-03T14:58:25.026Z,7.30
2022-11-03T15:00:57.345Z,7.10
2022-11-03T15:06:00.086Z,7.60
2022-11-03T15:08:32.787Z,8.10
2022-11-03T15:11:08.128Z,7.90
2022-11-03T15:13:45.828Z,8.30
2022-11-03T15:16:20.721Z,8.10
2022-11-03T15:18:53.121Z,8.10
2022-11-03T15:21:25.288Z,8.10
2022-11-03T15:26:49.558Z,8.50
2022-11-03T15:29:24.175Z,8.30
2022-11-03T15:31:56.536Z,8.80
2022-11-03T15:34:28.796Z,7.70
2022-11-03T15:37:01.132Z,8.00
2022-11-03T15:39:36.363Z,7.80
2022-11-03T15:42:08.871Z,8.30
2022-11-03T15:44:41.215Z,8.00
2022-11-03T15:47:13.576Z,9.30
2022-11-03T15:52:16.673Z,8.00
2022-11-03T15:57:21.012Z,9.10
2022-11-03T15:59:55.347Z,8.40
2022-11-03T16:02:45.914Z,8.00
2022-11-03T16:05:23.800Z,7.60
2022-11-03T16:08:00.520Z,7.70
2022-11-03T16:10:32.871Z,9.50
2022-11-03T16:13:05.221Z,7.80
2022-11-03T16:15:37.478Z,7.50
2022-11-03T16:18:10.061Z,8.40
2022-11-03T16:20:45.110Z,7.70
2022-11-03T16:23:17.430Z,8.60
2022-11-03T16:25:49.599Z,8.30
2022-11-03T16:28:21.752Z,8.20
2022-11-03T16:30:54.709Z,7.70
2022-11-03T16:33:27.066Z,9.20
2022-11-03T16:35:59.744Z,8.70
2022-11-03T16:38:32.077Z,8.60
2022-11-03T16:41:05.361Z,8.80
2022-11-03T16:43:37.597Z,9.30
2022-11-03T16:46:10.504Z,9.20
2022-11-03T16:48:42.676Z,9.40
2022-11-03T16:51:14.944Z,9.50
2022-11-03T16:53:47.237Z,9.00
2022-11-03T16:56:19.517Z,9.30
2022-11-03T16:58:51.708Z,9.20
2022-11-03T17:01:23.979Z,9.80
2022-11-03T17:03:57.077Z,9.10
2022-11-03T17:10:42.051Z,10.10
2022-11-03T17:15:50.330Z,9.20
2022-11-03T17:18:22.647Z,9.40
2022-11-03T17:20:55.016Z,10.20
2022-11-03T17:23:27.498Z,9.60
2022-11-03T17:29:23.224Z,9.40
2022-11-03T17:31:51.986Z,9.40
2022-11-03T17:34:23.730Z,9.10
2022-11-03T17:36:53.379Z,9.60
2022-11-03T17:39:28.962Z,10.20
2022-11-03T17:42:04.082Z,8.70
2022-11-03T17:44:32.947Z,9.70
2022-11-03T17:47:01.826Z,12.00
2022-11-03T17:49:30.636Z,10.10
2022-11-03T17:51:59.442Z,9.70
2022-11-03T17:54:30.805Z,10.90
2022-11-03T17:57:00.850Z,10.50
2022-11-03T17:59:29.796Z,10.40
2022-11-03T18:01:58.948Z,11.70
2022-11-03T18:04:27.901Z,11.90
2022-11-03T18:06:57.166Z,15.40
2022-11-03T18:09:25.964Z,13.60
2022-11-03T18:12:13.065Z,12.30
2022-11-03T18:14:41.894Z,14.40
2022-11-03T18:17:10.899Z,14.70
2022-11-03T18:19:40.043Z,15.10
2022-11-03T18:22:10.303Z,15.20
2022-11-03T18:24:39.148Z,12.00
2022-11-03T18:27:11.685Z,11.80
2022-11-03T18:32:10.578Z,12.00
2022-11-03T18:34:41.321Z,11.80
2022-11-03T18:37:10.369Z,13.00
2022-11-03T18:39:39.631Z,12.00
2022-11-03T18:42:13.692Z,12.50
2022-11-03T18:44:43.884Z,12.50
2022-11-03T18:47:12.639Z,12.30
2022-11-03T18:49:41.606Z,12.60
2022-11-03T18:52:14.072Z,12.30
2022-11-03T18:57:13.393Z,12.60
2022-11-03T18:59:44.578Z,12.50
2022-11-03T19:02:17.646Z,12.90
2022-11-03T19:04:46.994Z,13.60
2022-11-03T19:07:19.341Z,13.00
2022-11-03T19:09:48.193Z,12.80
2022-11-03T19:12:17.162Z,14.40
2022-11-03T19:14:47.417Z,14.40
2022-11-03T19:17:25.423Z,14.80
2022-11-03T19:19:54.604Z,15.50
2022-11-03T19:22:24.323Z,15.70
2022-11-03T19:24:53.219Z,15.20
2022-11-03T19:27:25.728Z,15.60
2022-11-03T19:29:55.562Z,15.60
2022-11-03T19:32:26.258Z,15.10
2022-11-03T19:34:57.037Z,15.80
2022-11-03T19:37:28.725Z,16.30
2022-11-03T19:40:00.713Z,16.40
2022-11-03T19:42:30.689Z,15.20
2022-11-03T19:45:06.662Z,16.10
2022-11-03T19:47:38.361Z,15.80
2022-11-03T19:50:17.759Z,16.00
2022-11-03T19:52:46.680Z,15.80
2022-11-03T19:55:16.099Z,17.00
2022-11-03T19:57:45.135Z,17.60
2022-11-03T20:00:18.158Z,17.50
2022-11-03T20:02:47.369Z,17.60
2022-11-03T20:05:16.461Z,17.00
2022-11-03T20:07:45.397Z,17.40
2022-11-03T20:10:18.987Z,17.60
2022-11-03T20:12:48.197Z,19.20
2022-11-03T20:15:19.079Z,19.50
2022-11-03T20:17:49.202Z,19.60
2022-11-03T20:20:19.765Z,18.00
2022-11-03T20:22:50.376Z,18.20
2022-11-03T20:25:23.405Z,18.50
2022-11-03T20:27:52.766Z,19.80
2022-11-03T20:30:22.778Z,18.30
2022-11-03T20:32:52.286Z,19.00
2022-11-03T20:35:24.207Z,19.90
2022-11-03T20:37:59.098Z,20.80
2022-11-03T20:40:30.358Z,20.40
2022-11-03T20:43:01.062Z,20.00
2022-11-03T20:45:30.079Z,17.80
2022-11-03T20:47:59.121Z,19.50
2022-11-03T20:50:31.473Z,20.70
2022-11-03T20:53:00.434Z,19.60
2022-11-03T20:55:29.989Z,19.50
2022-11-03T20:57:59.396Z,20.10
2022-11-03T21:00:28.598Z,20.10
2022-11-03T21:02:57.594Z,21.30
2022-11-03T21:05:27.979Z,21.20
2022-11-03T21:07:56.974Z,21.10
2022-11-03T21:10:25.968Z,20.30
2022-11-03T21:12:54.962Z,19.50
2022-11-03T21:15:57.723Z,20.10
2022-11-03T21:18:49.868Z,19.80
2022-11-03T21:21:21.385Z,17.80
2022-11-03T21:23:50.571Z,23.00
2022-11-03T21:26:19.511Z,19.70
2022-11-03T21:28:48.427Z,20.50
2022-11-03T21:31:23.193Z,19.90
2022-11-03T21:33:52.155Z,20.40
2022-11-03T21:36:21.194Z,19.80
2022-11-03T21:38:50.102Z,19.30
2022-11-03T21:41:37.390Z,19.60
2022-11-03T21:44:16.570Z,20.70
2022-11-03T21:46:46.644Z,21.60
2022-11-03T21:49:33.750Z,19.10
2022-11-03T21:52:02.694Z,20.20
2022-11-03T21:54:31.700Z,20.50
2022-11-03T21:57:00.624Z,20.00
2022-11-03T21:59:29.611Z,21.20
2022-11-03T22:01:58.773Z,20.70
2022-11-03T22:04:28.464Z,18.80
2022-11-03T22:06:58.927Z,21.70
2022-11-03T22:09:28.328Z,19.40
2022-11-03T22:11:57.227Z,18.50
2022-11-03T22:14:28.492Z,20.20
2022-11-03T22:16:57.779Z,19.60
2022-11-03T22:19:45.034Z,19.10
2022-11-03T22:22:33.483Z,20.40
2022-11-03T22:25:20.963Z,18.70
2022-11-03T22:27:49.883Z,20.60
2022-11-03T22:30:37.353Z,21.10
2022-11-03T22:33:06.301Z,18.80
2022-11-03T22:35:53.557Z,20.90
2022-11-03T22:38:42.456Z,19.40
2022-11-03T22:41:29.911Z,20.00
2022-11-03T22:44:22.717Z,18.90
2022-11-03T22:46:51.665Z,20.00
2022-11-03T22:49:20.586Z,20.20
2022-11-03T22:51:49.622Z,20.10
2022-11-03T22:54:18.724Z,20.50
2022-11-03T22:56:47.665Z,19.70
2022-11-03T22:59:16.673Z,19.60
2022-11-03T23:01:45.692Z,18.60
2022-11-03T23:04:14.805Z,19.50
2022-11-03T23:06:43.723Z,20.20
2022-11-03T23:09:14.709Z,19.90
2022-11-03T23:11:43.685Z,19.00
2022-11-03T23:14:12.631Z,19.60
2022-11-03T23:16:43.526Z,18.70
2022-11-03T23:19:32.835Z,20.00
2022-11-03T23:22:01.972Z,18.30
2022-11-03T23:24:49.108Z,18.90
2022-11-03T23:27:18.054Z,19.20
2022-11-03T23:29:46.977Z,18.60
2022-11-03T23:32:15.968Z,19.50
2022-11-03T23:34:44.876Z,18.80
2022-11-03T23:37:13.951Z,18.30
2022-11-03T23:39:42.854Z,17.50
2022-11-03T23:42:11.809Z,17.30
2022-11-03T23:44:59.300Z,16.10
2022-11-03T23:47:46.575Z,16.90
2022-11-03T23:50:15.861Z,17.00
2022-11-03T23:52:44.746Z,17.70
2022-11-03T23:55:13.653Z,17.80
2022-11-03T23:58:00.799Z,17.10
